createdAt,value
2023-02-28T00:01:34.969Z,9.80
2023-02-28T00:04:03.991Z,9.90
2023-02-28T00:06:32.465Z,11.00
2023-02-28T00:09:01.145Z,9.20
2023-02-28T00:11:29.688Z,11.90
2023-02-28T00:13:58.363Z,14.20
2023-02-28T00:16:26.729Z,12.50
2023-02-28T00:18:55.234Z,11.30
2023-02-28T00:21:23.804Z,15.80
2023-02-28T00:23:53.496Z,13.20
2023-02-28T00:26:22.539Z,11.10
2023-02-28T00:28:54.180Z,13.40
2023-02-28T00:31:22.637Z,12.30
2023-02-28T00:33:52.970Z,11.90
2023-02-28T00:36:21.301Z,11.80
2023-02-28T00:38:49.731Z,11.80
2023-02-28T00:41:18.035Z,11.60
2023-02-28T00:43:46.967Z,11.90
2023-02-28T00:46:15.327Z,11.50
2023-02-28T00:48:43.737Z,11.30
2023-02-28T00:51:12.145Z,11.40
2023-02-28T00:53:40.400Z,10.10
2023-02-28T00:56:08.706Z,12.00
2023-02-28T00:58:37.078Z,10.50
2023-02-28T01:01:06.683Z,10.00
2023-02-28T01:03:35.084Z,10.30
2023-02-28T01:06:03.538Z,15.60
2023-02-28T01:08:31.885Z,14.10
2023-02-28T01:11:08.843Z,16.00
2023-02-28T01:13:37.990Z,15.10
2023-02-28T01:16:07.220Z,14.30
2023-02-28T01:18:36.519Z,16.80
2023-02-28T01:21:06.993Z,16.30
2023-02-28T01:23:36.112Z,15.10
2023-02-28T01:26:18.287Z,14.70
2023-02-28T01:28:47.536Z,14.10
2023-02-28T01:31:16.001Z,12.60
2023-02-28T01:33:44.578Z,13.70
2023-02-28T01:36:16.308Z,11.50
2023-02-28T01:38:44.926Z,11.90
2023-02-28T01:41:24.679Z,11.00
2023-02-28T01:44:06.541Z,11.50
2023-02-28T01:46:37.078Z,11.90
2023-02-28T01:49:16.905Z,10.70
2023-02-28T01:51:55.961Z,10.60
2023-02-28T01:54:28.379Z,12.10
2023-02-28T01:57:05.112Z,11.70
2023-02-28T01:59:46.334Z,8.40
2023-02-28T02:02:17.952Z,10.40
2023-02-28T02:05:05.533Z,9.70
2023-02-28T02:07:37.512Z,9.70
2023-02-28T02:10:16.252Z,10.30
2023-02-28T02:13:08.732Z,10.30
2023-02-28T02:15:57.629Z,9.80
2023-02-28T02:18:51.289Z,10.30
2023-02-28T02:21:38.827Z,10.30
2023-02-28T02:24:26.111Z,9.60
2023-02-28T02:27:03.671Z,9.80
2023-02-28T02:29:44.560Z,10.30
2023-02-28T02:32:40.271Z,10.20
2023-02-28T02:35:29.631Z,10.60
2023-02-28T02:38:17.439Z,9.90
2023-02-28T02:41:05.622Z,9.40
2023-02-28T02:43:52.184Z,11.10
2023-02-28T02:46:25.057Z,10.60
2023-02-28T02:48:57.831Z,12.50
2023-02-28T02:51:29.082Z,9.50
2023-02-28T02:54:17.153Z,10.00
2023-02-28T02:56:48.546Z,12.70
2023-02-28T02:59:22.886Z,13.50
2023-02-28T03:01:59.179Z,24.20
2023-02-28T03:04:33.624Z,12.30
2023-02-28T03:07:02.043Z,10.60
2023-02-28T03:09:30.532Z,11.10
2023-02-28T03:11:58.919Z,10.20
2023-02-28T03:14:47.528Z,11.50
2023-02-28T03:17:34.202Z,11.40
2023-02-28T03:20:24.304Z,11.90
2023-02-28T03:23:20.878Z,11.60
2023-02-28T03:26:13.356Z,11.60
2023-02-28T03:29:22.200Z,10.90
2023-02-28T03:32:15.955Z,10.90
2023-02-28T03:34:55.196Z,10.60
2023-02-28T03:37:27.243Z,10.90
2023-02-28T03:40:08.048Z,10.60
2023-02-28T03:42:39.459Z,11.90
2023-02-28T03:45:17.834Z,11.90
2023-02-28T03:48:12.874Z,10.40
2023-02-28T03:50:44.489Z,10.60
2023-02-28T03:53:22.986Z,10.70
2023-02-28T03:56:08.668Z,11.50
2023-02-28T03:58:52.526Z,11.60
2023-02-28T04:01:36.975Z,12.30
2023-02-28T04:04:06.764Z,11.50
2023-02-28T04:06:36.327Z,12.70
2023-02-28T04:09:06.732Z,12.20
2023-02-28T04:11:41.889Z,12.40
2023-02-28T04:14:11.589Z,12.30
2023-02-28T04:16:42.505Z,11.10
2023-02-28T04:19:13.022Z,12.50
2023-02-28T04:21:47.655Z,11.90
2023-02-28T04:24:27.886Z,14.40
2023-02-28T04:26:59.094Z,13.90
2023-02-28T04:29:30.806Z,15.10
2023-02-28T04:32:01.105Z,13.40
2023-02-28T04:34:31.751Z,12.10
2023-02-28T04:37:17.210Z,14.30
2023-02-28T04:39:45.654Z,12.90
2023-02-28T04:42:14.980Z,14.50
2023-02-28T04:44:43.281Z,15.30
2023-02-28T04:47:11.683Z,15.60
2023-02-28T04:49:39.984Z,14.80
2023-02-28T04:52:08.960Z,13.30
2023-02-28T04:54:39.670Z,13.80
2023-02-28T04:57:07.999Z,12.50
2023-02-28T04:59:36.310Z,14.10
2023-02-28T05:02:08.183Z,14.10
2023-02-28T05:04:37.852Z,13.90
2023-02-28T05:07:06.276Z,14.00
2023-02-28T05:09:34.627Z,15.20
2023-02-28T05:12:03.669Z,15.30
2023-02-28T05:14:32.033Z,14.70
2023-02-28T05:17:00.361Z,14.00
2023-02-28T05:19:28.803Z,13.90
2023-02-28T05:21:57.673Z,12.10
2023-02-28T05:24:27.298Z,13.70
2023-02-28T05:26:56.500Z,12.80
2023-02-28T05:29:24.774Z,13.40
2023-02-28T05:31:53.443Z,13.00
2023-02-28T05:34:21.926Z,13.00
2023-02-28T05:36:50.301Z,13.90
2023-02-28T05:39:18.677Z,17.50
2023-02-28T05:41:47.160Z,17.20
2023-02-28T05:44:16.996Z,14.40
2023-02-28T05:46:45.419Z,13.40
2023-02-28T05:49:13.809Z,14.50
2023-02-28T05:51:42.323Z,14.80
2023-02-28T05:54:12.890Z,14.30
2023-02-28T05:56:45.269Z,15.50
2023-02-28T05:59:14.658Z,17.60
2023-02-28T06:01:49.545Z,18.70
2023-02-28T06:04:36.609Z,17.70
2023-02-28T06:07:05.123Z,19.10
2023-02-28T06:09:33.948Z,17.80
2023-02-28T06:12:11.223Z,16.10
2023-02-28T06:14:39.684Z,16.50
2023-02-28T06:17:08.467Z,18.30
2023-02-28T06:19:40.137Z,17.30
2023-02-28T06:22:08.647Z,17.40
2023-02-28T06:24:37.055Z,19.80
2023-02-28T06:27:06.485Z,19.80
2023-02-28T06:29:36.511Z,23.10
2023-02-28T06:32:05.403Z,20.50
2023-02-28T06:34:35.230Z,20.00
2023-02-28T06:37:03.809Z,22.10
2023-02-28T06:39:32.520Z,20.00
2023-02-28T06:42:00.979Z,19.40
2023-02-28T06:44:36.632Z,18.30
2023-02-28T06:47:08.292Z,20.00
2023-02-28T06:49:38.159Z,21.20
2023-02-28T06:52:06.906Z,15.90
2023-02-28T06:54:35.415Z,19.60
2023-02-28T06:57:04.141Z,19.40
2023-02-28T06:59:32.563Z,18.30
2023-02-28T07:02:01.581Z,16.30
2023-02-28T07:04:29.909Z,16.90
2023-02-28T07:06:58.242Z,17.20
2023-02-28T07:09:30.968Z,17.00
2023-02-28T07:11:59.248Z,17.90
2023-02-28T07:14:27.532Z,17.40
2023-02-28T07:16:55.884Z,16.90
2023-02-28T07:19:24.104Z,17.70
2023-02-28T07:21:52.269Z,18.00
2023-02-28T07:24:20.789Z,17.70
2023-02-28T07:26:49.112Z,17.70
2023-02-28T07:29:17.571Z,18.10
2023-02-28T07:31:45.904Z,17.90
2023-02-28T07:34:15.012Z,17.80
2023-02-28T07:36:43.466Z,18.70
2023-02-28T07:39:12.145Z,18.00
2023-02-28T07:41:45.177Z,17.80
2023-02-28T07:44:13.800Z,16.30
2023-02-28T07:46:42.572Z,16.80
2023-02-28T07:49:11.083Z,16.10
2023-02-28T07:51:39.924Z,13.60
2023-02-28T07:54:09.082Z,14.30
2023-02-28T07:56:37.632Z,14.70
2023-02-28T07:59:06.362Z,14.00
2023-02-28T08:01:34.783Z,13.00
2023-02-28T08:04:03.225Z,13.30
2023-02-28T08:06:32.115Z,13.20
2023-02-28T08:09:00.575Z,13.20
2023-02-28T08:11:29.086Z,13.80
2023-02-28T08:13:57.755Z,13.40
2023-02-28T08:16:26.289Z,13.90
2023-02-28T08:18:54.985Z,14.20
2023-02-28T08:21:23.923Z,13.70
2023-02-28T08:23:53.684Z,12.20
2023-02-28T08:26:22.077Z,12.30
2023-02-28T08:28:51.026Z,11.60
2023-02-28T08:31:20.305Z,12.40
2023-02-28T08:33:51.140Z,12.50
2023-02-28T08:36:20.388Z,13.50
2023-02-28T08:38:48.986Z,13.20
2023-02-28T08:41:18.035Z,11.90
2023-02-28T08:43:46.518Z,13.10
2023-02-28T08:46:16.298Z,13.30
2023-02-28T08:48:45.377Z,12.70
2023-02-28T08:51:22.768Z,13.00
2023-02-28T08:53:51.746Z,14.10
2023-02-28T08:56:20.889Z,13.60
2023-02-28T08:58:50.976Z,13.00
2023-02-28T09:01:22.294Z,13.40
2023-02-28T09:03:53.618Z,13.90
2023-02-28T09:06:24.704Z,14.80
2023-02-28T09:08:53.530Z,14.30
2023-02-28T09:11:22.807Z,14.50
2023-02-28T09:13:51.526Z,13.80
2023-02-28T09:16:20.526Z,15.60
2023-02-28T09:18:49.572Z,14.30
2023-02-28T09:21:19.908Z,14.10
2023-02-28T09:23:50.776Z,14.60
2023-02-28T09:26:34.648Z,14.80
2023-02-28T09:29:08.498Z,15.60
2023-02-28T09:31:37.559Z,14.70
2023-02-28T09:34:06.298Z,15.30
2023-02-28T09:36:44.756Z,15.00
2023-02-28T09:39:16.849Z,14.30
2023-02-28T09:41:51.939Z,13.30
2023-02-28T09:44:26.870Z,14.40
2023-02-28T09:47:03.042Z,11.10
2023-02-28T09:49:41.499Z,8.60
2023-02-28T09:52:26.507Z,9.10
2023-02-28T09:54:56.210Z,9.40
2023-02-28T09:57:38.387Z,8.60
2023-02-28T10:00:19.586Z,8.30
2023-02-28T10:03:12.430Z,8.20
2023-02-28T10:06:16.998Z,6.70
2023-02-28T10:08:54.677Z,8.40
2023-02-28T10:11:26.079Z,8.00
2023-02-28T10:14:03.906Z,6.50
2023-02-28T10:16:48.759Z,6.90
2023-02-28T10:19:21.530Z,8.70
2023-02-28T10:22:00.547Z,5.90
2023-02-28T10:24:49.977Z,7.80
2023-02-28T10:27:24.833Z,6.50
2023-02-28T10:29:58.618Z,6.20
2023-02-28T10:32:39.374Z,6.80
2023-02-28T10:35:15.419Z,6.70
2023-02-28T10:37:47.288Z,6.10
2023-02-28T10:40:18.839Z,5.20
2023-02-28T10:42:59.126Z,6.90
2023-02-28T10:45:31.010Z,5.70
2023-02-28T10:48:27.480Z,5.40
2023-02-28T10:50:59.269Z,4.70
2023-02-28T10:54:03.094Z,5.10
2023-02-28T10:56:34.111Z,3.80
2023-02-28T10:59:24.709Z,4.20
2023-02-28T11:01:54.581Z,4.90
2023-02-28T11:04:37.087Z,4.20
2023-02-28T11:07:21.549Z,4.10
2023-02-28T11:09:54.054Z,4.30
2023-02-28T11:12:46.909Z,6.30
2023-02-28T11:15:31.358Z,8.10
2023-02-28T11:18:13.064Z,4.80
2023-02-28T11:20:41.945Z,4.70
2023-02-28T11:23:15.102Z,4.60
2023-02-28T11:25:54.923Z,4.20
2023-02-28T11:28:42.023Z,5.00
2023-02-28T11:31:15.184Z,4.80
2023-02-28T11:33:50.148Z,4.70
2023-02-28T11:36:25.946Z,4.50
2023-02-28T11:38:57.322Z,5.50
2023-02-28T11:41:34.449Z,6.80
2023-02-28T11:44:25.046Z,5.40
2023-02-28T11:47:02.324Z,5.30
2023-02-28T11:49:46.076Z,6.00
2023-02-28T11:52:46.922Z,5.70
2023-02-28T11:55:49.104Z,5.80
2023-02-28T11:58:37.694Z,6.20
2023-02-28T12:01:44.049Z,6.60
2023-02-28T12:04:18.498Z,6.80
2023-02-28T12:06:52.534Z,6.70
2023-02-28T12:09:40.033Z,6.30
2023-02-28T12:12:17.040Z,6.20
2023-02-28T12:15:13.832Z,7.20
2023-02-28T12:18:07.571Z,6.60
2023-02-28T12:20:58.203Z,7.40
2023-02-28T12:23:42.031Z,7.30
2023-02-28T12:26:25.753Z,6.00
2023-02-28T12:29:14.078Z,5.70
2023-02-28T12:31:50.743Z,6.20
2023-02-28T12:34:30.067Z,6.00
2023-02-28T12:37:02.759Z,6.50
2023-02-28T12:39:49.491Z,6.40
2023-02-28T12:42:28.499Z,6.60
2023-02-28T12:45:21.543Z,7.80
2023-02-28T12:47:58.139Z,6.90
2023-02-28T12:50:28.276Z,8.40
2023-02-28T12:53:02.888Z,8.30
2023-02-28T12:55:50.135Z,8.70
2023-02-28T12:58:35.638Z,8.80
2023-02-28T13:01:48.927Z,8.10
2023-02-28T13:04:47.840Z,8.30
2023-02-28T13:07:50.599Z,8.00
2023-02-28T13:10:20.140Z,8.40
2023-02-28T13:12:51.645Z,8.60
2023-02-28T13:15:25.553Z,9.10
2023-02-28T13:17:58.074Z,9.40
2023-02-28T13:20:31.203Z,8.70
2023-02-28T13:22:59.872Z,8.70
2023-02-28T13:25:55.197Z,9.40
2023-02-28T13:28:59.003Z,8.30
2023-02-28T13:31:28.423Z,9.70
2023-02-28T13:34:03.724Z,8.60
2023-02-28T13:36:33.839Z,9.70
2023-02-28T13:39:24.448Z,9.70
2023-02-28T13:41:53.437Z,8.30
2023-02-28T13:44:27.839Z,9.00
2023-02-28T13:46:57.165Z,8.90
2023-02-28T13:49:38.037Z,9.20
2023-02-28T13:52:16.388Z,9.10
2023-02-28T13:55:26.207Z,9.60
2023-02-28T13:57:57.794Z,9.50
2023-02-28T14:00:29.262Z,9.70
2023-02-28T14:03:22.820Z,8.20
2023-02-28T14:06:18.281Z,10.90
2023-02-28T14:09:00.436Z,11.00
2023-02-28T14:11:35.946Z,10.50
2023-02-28T14:14:06.778Z,9.40
2023-02-28T14:16:41.439Z,9.60
2023-02-28T14:19:24.506Z,10.20
2023-02-28T14:22:31.768Z,10.10
2023-02-28T14:25:39.634Z,9.70
2023-02-28T14:28:29.638Z,10.20
2023-02-28T14:31:09.775Z,8.90
2023-02-28T14:33:50.229Z,10.20
2023-02-28T14:36:24.823Z,10.30
2023-02-28T14:38:58.659Z,9.10
2023-02-28T14:41:36.621Z,9.40
2023-02-28T14:44:15.256Z,10.10
2023-02-28T14:46:45.921Z,8.40
2023-02-28T14:49:31.562Z,10.10
2023-02-28T14:52:10.937Z,8.60
2023-02-28T14:54:40.834Z,9.40
2023-02-28T14:57:24.862Z,9.20
2023-02-28T15:00:17.725Z,9.10
2023-02-28T15:02:46.607Z,8.60
2023-02-28T15:05:17.858Z,8.50
2023-02-28T15:07:48.131Z,8.60
2023-02-28T15:10:24.117Z,7.60
2023-02-28T15:13:07.680Z,9.20
2023-02-28T15:16:01.351Z,9.70
2023-02-28T15:18:33.622Z,8.20
2023-02-28T15:21:09.565Z,7.60
2023-02-28T15:23:39.811Z,7.40
2023-02-28T15:26:08.987Z,7.00
2023-02-28T15:28:37.783Z,7.90
2023-02-28T15:31:24.154Z,7.30
2023-02-28T15:33:58.407Z,10.30
2023-02-28T15:36:33.184Z,9.10
2023-02-28T15:39:15.512Z,9.70
2023-02-28T15:41:44.992Z,8.50
2023-02-28T15:44:37.896Z,10.10
2023-02-28T15:47:08.762Z,10.00
2023-02-28T15:50:00.175Z,9.60
2023-02-28T15:52:37.971Z,10.60
2023-02-28T15:55:19.935Z,10.10
2023-02-28T15:57:55.274Z,8.40
2023-02-28T16:00:27.040Z,10.30
2023-02-28T16:02:56.247Z,10.60
2023-02-28T16:05:33.134Z,10.60
2023-02-28T16:08:16.459Z,9.50
2023-02-28T16:10:45.159Z,13.20
2023-02-28T16:13:16.542Z,11.50
2023-02-28T16:15:45.711Z,11.20
2023-02-28T16:18:15.322Z,9.40
2023-02-28T16:20:45.953Z,8.30
2023-02-28T16:23:14.895Z,7.70
2023-02-28T16:25:46.200Z,7.80
2023-02-28T16:28:33.036Z,8.10
2023-02-28T16:31:06.167Z,8.30
2023-02-28T16:33:35.684Z,8.10
2023-02-28T16:36:05.246Z,8.80
2023-02-28T16:38:35.799Z,8.20
2023-02-28T16:41:04.934Z,8.40
2023-02-28T16:43:34.704Z,9.40
2023-02-28T16:46:04.919Z,8.30
2023-02-28T16:48:34.100Z,7.70
2023-02-28T16:51:05.741Z,9.30
2023-02-28T16:53:34.398Z,14.30
2023-02-28T16:56:04.277Z,17.40
2023-02-28T16:58:36.994Z,17.20
2023-02-28T17:01:08.250Z,13.20
2023-02-28T17:03:38.737Z,15.40
2023-02-28T17:06:29.891Z,14.40
2023-02-28T17:09:00.670Z,14.90
2023-02-28T17:11:29.561Z,12.00
2023-02-28T17:13:58.495Z,10.40
2023-02-28T17:16:33.717Z,7.80
2023-02-28T17:19:06.056Z,7.90
2023-02-28T17:21:35.672Z,8.30
2023-02-28T17:24:05.890Z,8.30
2023-02-28T17:26:36.163Z,8.80
2023-02-28T17:29:18.755Z,9.70
2023-02-28T17:31:48.136Z,8.00
2023-02-28T17:34:21.224Z,8.80
2023-02-28T17:36:53.815Z,7.90
2023-02-28T17:39:27.763Z,8.00
2023-02-28T17:41:58.046Z,8.00
2023-02-28T17:44:30.602Z,7.90
2023-02-28T17:47:01.334Z,10.80
2023-02-28T17:49:31.198Z,17.40
2023-02-28T17:52:00.841Z,12.70
2023-02-28T17:54:38.341Z,16.20
2023-02-28T17:57:08.437Z,14.50
2023-02-28T17:59:38.422Z,9.40
2023-02-28T18:02:08.908Z,9.20
2023-02-28T18:04:38.402Z,8.70
2023-02-28T18:07:12.680Z,8.40
2023-02-28T18:09:49.100Z,7.90
2023-02-28T18:12:18.922Z,9.20
2023-02-28T18:14:49.219Z,9.50
2023-02-28T18:17:18.757Z,12.70
2023-02-28T18:19:56.646Z,11.30
2023-02-28T18:22:26.468Z,14.80
2023-02-28T18:24:56.168Z,10.00
2023-02-28T18:27:25.968Z,11.00
2023-02-28T18:29:56.224Z,13.50
2023-02-28T18:32:27.520Z,12.70
2023-02-28T18:34:57.706Z,10.80
2023-02-28T18:37:28.754Z,7.80
2023-02-28T18:39:58.973Z,13.70
2023-02-28T18:42:29.422Z,14.40
2023-02-28T18:45:01.640Z,23.70
2023-02-28T18:47:31.648Z,15.10
2023-02-28T18:50:02.002Z,20.20
2023-02-28T18:52:32.571Z,18.80
2023-02-28T18:55:05.441Z,18.30
2023-02-28T18:57:35.677Z,11.00
2023-02-28T19:00:09.632Z,11.90
2023-02-28T19:02:42.949Z,12.10
2023-02-28T19:05:13.638Z,13.40
2023-02-28T19:07:43.460Z,24.70
2023-02-28T19:10:15.820Z,16.70
2023-02-28T19:12:46.547Z,17.10
2023-02-28T19:15:17.250Z,13.50
2023-02-28T19:17:46.950Z,23.50
2023-02-28T19:20:17.040Z,27.80
2023-02-28T19:22:48.909Z,28.60
2023-02-28T19:25:21.408Z,34.50
2023-02-28T19:27:56.310Z,23.10
2023-02-28T19:30:27.274Z,44.60
2023-02-28T19:33:00.743Z,40.20
2023-02-28T19:35:31.733Z,45.10
2023-02-28T19:38:03.269Z,46.40
2023-02-28T19:40:33.795Z,37.20
2023-02-28T19:43:06.618Z,25.30
2023-02-28T19:45:38.731Z,18.20
2023-02-28T19:48:10.202Z,39.30
2023-02-28T19:50:51.706Z,19.80
2023-02-28T19:53:22.243Z,22.60
2023-02-28T19:55:54.182Z,19.60
2023-02-28T19:58:24.999Z,19.10
2023-02-28T20:00:55.756Z,21.30
2023-02-28T20:03:30.309Z,17.60
2023-02-28T20:06:08.313Z,17.80
2023-02-28T20:08:40.389Z,16.00
2023-02-28T20:11:13.999Z,15.60
2023-02-28T20:13:45.689Z,13.70
2023-02-28T20:16:16.587Z,12.60
2023-02-28T20:18:55.170Z,32.90
2023-02-28T20:21:28.563Z,26.70
2023-02-28T20:24:00.084Z,15.40
2023-02-28T20:26:31.152Z,14.30
2023-02-28T20:29:01.802Z,14.50
2023-02-28T20:31:33.453Z,12.80
2023-02-28T20:34:04.189Z,16.60
2023-02-28T20:36:34.934Z,15.50
2023-02-28T20:39:05.969Z,14.80
2023-02-28T20:41:40.134Z,14.10
2023-02-28T20:44:13.313Z,13.70
2023-02-28T20:46:44.766Z,13.40
2023-02-28T20:49:16.293Z,14.20
2023-02-28T20:51:46.834Z,14.50
2023-02-28T20:54:17.065Z,13.00
2023-02-28T20:56:47.058Z,13.70
2023-02-28T20:59:19.208Z,14.00
2023-02-28T21:01:49.034Z,14.90
2023-02-28T21:04:18.572Z,14.70
2023-02-28T21:06:48.987Z,15.70
2023-02-28T21:09:19.423Z,15.20
2023-02-28T21:11:50.032Z,14.60
2023-02-28T21:14:18.696Z,14.90
2023-02-28T21:16:49.111Z,19.50
2023-02-28T21:19:19.223Z,18.00
2023-02-28T21:21:48.698Z,16.20
2023-02-28T21:24:22.178Z,21.80
2023-02-28T21:26:52.339Z,15.70
2023-02-28T21:29:21.162Z,15.90
2023-02-28T21:31:55.407Z,14.70
2023-02-28T21:34:25.281Z,14.10
2023-02-28T21:36:54.692Z,14.90
2023-02-28T21:39:26.300Z,15.40
2023-02-28T21:41:56.774Z,15.20
2023-02-28T21:44:29.061Z,15.10
2023-02-28T21:47:01.312Z,17.50
2023-02-28T21:49:30.329Z,22.60
2023-02-28T21:51:58.916Z,40.10
2023-02-28T21:54:27.753Z,34.20
2023-02-28T21:56:56.488Z,39.90
2023-02-28T21:59:25.470Z,29.80
2023-02-28T22:01:55.762Z,27.60
2023-02-28T22:04:24.712Z,24.40
2023-02-28T22:06:57.612Z,27.50
2023-02-28T22:09:27.379Z,21.60
2023-02-28T22:11:56.849Z,21.40
2023-02-28T22:14:25.565Z,25.10
2023-02-28T22:16:55.274Z,23.70
2023-02-28T22:19:25.182Z,27.60
2023-02-28T22:21:54.408Z,26.90
2023-02-28T22:24:24.890Z,29.50
2023-02-28T22:26:54.056Z,32.80
2023-02-28T22:29:23.467Z,29.70
2023-02-28T22:31:52.291Z,26.80
2023-02-28T22:34:21.006Z,26.40
2023-02-28T22:36:52.505Z,31.70
2023-02-28T22:39:21.614Z,29.00
2023-02-28T22:41:50.225Z,30.50
2023-02-28T22:44:19.409Z,33.10
2023-02-28T22:46:53.359Z,36.70
2023-02-28T22:51:50.405Z,38.50
2023-02-28T22:54:19.690Z,38.40
2023-02-28T22:56:48.305Z,38.40
2023-02-28T22:59:17.364Z,37.30
2023-02-28T23:01:46.382Z,36.80
2023-02-28T23:05:11.924Z,36.80
2023-02-28T23:07:42.167Z,33.00
2023-02-28T23:10:14.817Z,36.60
2023-02-28T23:12:53.912Z,36.40
2023-02-28T23:15:23.736Z,37.50
2023-02-28T23:17:52.651Z,38.10
2023-02-28T23:20:21.777Z,41.20
2023-02-28T23:22:52.683Z,41.10
2023-02-28T23:25:22.000Z,43.40
2023-02-28T23:27:50.778Z,39.80
2023-02-28T23:30:19.734Z,39.30
2023-02-28T23:32:49.076Z,36.80
2023-02-28T23:35:18.306Z,40.00
2023-02-28T23:37:46.994Z,40.60
2023-02-28T23:40:16.707Z,37.60
2023-02-28T23:42:45.580Z,38.10
2023-02-28T23:45:14.566Z,37.10
2023-02-28T23:47:43.903Z,37.80
2023-02-28T23:50:12.703Z,35.20
2023-02-28T23:52:41.358Z,35.20
2023-02-28T23:55:10.918Z,35.90
2023-02-28T23:57:39.969Z,35.50
